createdAt,value
2019-04-26T00:02:29.564Z,94.00
2019-04-26T00:05:05.212Z,94.20
2019-04-26T00:07:40.348Z,93.90
2019-04-26T00:10:16.557Z,93.10
2019-04-26T00:12:59.859Z,93.10
2019-04-26T00:15:45.935Z,92.90
2019-04-26T00:18:23.649Z,92.80
2019-04-26T00:20:58.985Z,92.40
2019-04-26T00:23:33.845Z,92.20
2019-04-26T00:26:09.656Z,91.80
2019-04-26T00:28:44.730Z,92.20
2019-04-26T00:31:19.915Z,92.00
2019-04-26T00:33:55.159Z,91.50
2019-04-26T00:36:32.074Z,91.40
2019-04-26T00:39:08.260Z,91.40
2019-04-26T00:41:43.418Z,91.30
2019-04-26T00:47:26.664Z,88.60
2019-04-26T00:49:59.931Z,88.10
2019-04-26T00:52:36.308Z,87.30
2019-04-26T00:55:11.528Z,87.50
2019-04-26T00:57:47.486Z,86.20
2019-04-26T01:00:23.564Z,87.90
2019-04-26T01:02:59.755Z,87.40
2019-04-26T01:05:35.772Z,87.40
2019-04-26T01:08:11.774Z,86.50
2019-04-26T01:10:46.739Z,86.90
2019-04-26T01:13:22.071Z,86.90
2019-04-26T01:15:56.971Z,86.70
2019-04-26T01:18:32.335Z,85.50
2019-04-26T01:21:08.756Z,84.10
2019-04-26T01:23:57.877Z,81.90
2019-04-26T01:26:40.161Z,81.20
2019-04-26T01:29:22.496Z,80.80
2019-04-26T01:32:10.899Z,79.50
2019-04-26T01:34:47.960Z,79.40
2019-04-26T01:37:23.058Z,78.40
2019-04-26T01:40:01.708Z,78.70
2019-04-26T01:42:46.380Z,79.00
2019-04-26T01:45:33.498Z,81.00
2019-04-26T01:48:11.795Z,79.80
2019-04-26T01:50:47.334Z,78.80
2019-04-26T01:53:22.415Z,76.40
2019-04-26T01:55:58.044Z,74.30
2019-04-26T01:58:33.069Z,75.20
2019-04-26T02:01:12.524Z,74.20
2019-04-26T02:03:47.613Z,72.20
2019-04-26T02:06:29.055Z,72.20
2019-04-26T02:09:18.641Z,71.10
2019-04-26T02:11:54.689Z,67.80
2019-04-26T02:14:29.634Z,63.90
2019-04-26T02:17:05.753Z,63.80
2019-04-26T02:19:40.981Z,65.00
2019-04-26T02:22:17.369Z,63.30
2019-04-26T02:24:53.519Z,65.00
2019-04-26T02:27:30.429Z,65.30
2019-04-26T02:30:07.413Z,64.50
2019-04-26T02:32:44.068Z,65.60
2019-04-26T02:35:22.598Z,67.40
2019-04-26T02:37:58.567Z,66.70
2019-04-26T02:40:34.880Z,66.20
2019-04-26T02:43:12.424Z,66.60
2019-04-26T02:45:52.572Z,63.90
2019-04-26T02:48:30.871Z,61.60
2019-04-26T02:51:21.910Z,60.00
2019-04-26T02:54:09.135Z,59.90
2019-04-26T02:57:03.402Z,59.80
2019-04-26T02:59:40.911Z,59.70
2019-04-26T03:02:25.864Z,57.80
2019-04-26T03:05:02.888Z,59.80
2019-04-26T03:07:54.742Z,59.10
2019-04-26T03:10:32.682Z,62.30
2019-04-26T03:13:10.593Z,60.50
2019-04-26T03:15:49.040Z,59.90
2019-04-26T03:18:34.585Z,58.30
2019-04-26T03:21:28.307Z,57.90
2019-04-26T03:24:19.882Z,57.40
2019-04-26T03:27:12.115Z,58.40
2019-04-26T03:29:49.018Z,57.80
2019-04-26T03:32:45.969Z,56.40
2019-04-26T03:35:25.399Z,56.50
2019-04-26T03:38:03.604Z,55.50
2019-04-26T03:40:56.262Z,54.50
2019-04-26T03:43:43.160Z,53.40
2019-04-26T03:46:39.771Z,53.00
2019-04-26T03:49:38.076Z,52.20
2019-04-26T03:52:15.629Z,50.50
2019-04-26T03:54:52.534Z,50.60
2019-04-26T03:57:50.849Z,50.60
2019-04-26T04:00:29.368Z,51.50
2019-04-26T04:03:22.231Z,52.00
2019-04-26T04:06:00.838Z,50.80
2019-04-26T04:08:53.326Z,50.00
2019-04-26T04:11:40.293Z,52.10
2019-04-26T04:14:25.216Z,50.60
2019-04-26T04:17:12.628Z,49.80
2019-04-26T04:20:09.438Z,47.30
2019-04-26T04:22:53.602Z,47.30
2019-04-26T04:25:33.163Z,47.80
2019-04-26T04:28:15.854Z,47.20
2019-04-26T04:30:58.457Z,46.50
2019-04-26T04:33:49.450Z,47.50
2019-04-26T04:36:25.385Z,46.10
2019-04-26T04:39:14.172Z,45.90
2019-04-26T04:42:17.271Z,46.40
2019-04-26T04:45:13.815Z,46.60
2019-04-26T04:48:18.832Z,47.00
2019-04-26T04:51:29.205Z,46.60
2019-04-26T04:54:11.844Z,45.30
2019-04-26T04:56:58.378Z,44.40
2019-04-26T04:59:46.868Z,44.20
2019-04-26T05:02:36.372Z,44.30
2019-04-26T05:05:44.900Z,44.00
2019-04-26T05:08:27.599Z,43.90
2019-04-26T05:11:09.682Z,44.40
2019-04-26T05:13:55.295Z,44.20
2019-04-26T05:16:51.031Z,42.90
2019-04-26T05:19:54.833Z,41.30
2019-04-26T05:22:34.624Z,40.90
2019-04-26T05:25:15.304Z,42.20
2019-04-26T05:27:58.855Z,42.20
2019-04-26T05:31:09.525Z,42.10
2019-04-26T05:33:58.177Z,42.10
2019-04-26T05:36:54.861Z,43.70
2019-04-26T05:39:34.089Z,42.70
2019-04-26T05:42:42.922Z,43.00
2019-04-26T05:45:29.281Z,43.70
2019-04-26T05:48:27.903Z,44.10
2019-04-26T05:51:06.625Z,44.20
2019-04-26T05:54:00.089Z,44.60
2019-04-26T05:56:40.774Z,45.50
2019-04-26T05:59:27.331Z,45.10
2019-04-26T06:02:17.555Z,45.20
2019-04-26T06:05:27.814Z,45.20
2019-04-26T06:08:30.684Z,46.40
2019-04-26T06:11:07.853Z,45.80
2019-04-26T06:17:16.163Z,45.00
2019-04-26T06:20:02.818Z,44.80
2019-04-26T06:23:04.413Z,45.10
2019-04-26T06:26:03.358Z,44.20
2019-04-26T06:28:53.318Z,44.40
2019-04-26T06:31:32.603Z,44.30
2019-04-26T06:34:12.796Z,44.30
2019-04-26T06:36:54.805Z,44.40
2019-04-26T06:39:41.145Z,44.40
2019-04-26T06:42:21.340Z,43.10
2019-04-26T06:45:27.089Z,43.60
2019-04-26T06:48:10.531Z,43.40
2019-04-26T06:53:49.616Z,44.30
2019-04-26T06:56:45.647Z,43.60
2019-04-26T06:59:36.459Z,44.70
2019-04-26T07:02:33.391Z,45.80
2019-04-26T07:05:19.022Z,41.20
2019-04-26T07:08:24.498Z,39.70
2019-04-26T07:11:04.784Z,38.40
2019-04-26T07:13:55.352Z,39.10
2019-04-26T07:16:32.045Z,39.50
2019-04-26T07:19:30.601Z,39.40
2019-04-26T07:22:35.536Z,39.30
2019-04-26T07:25:35.987Z,39.90
2019-04-26T07:28:12.859Z,42.50
2019-04-26T07:30:55.659Z,39.70
2019-04-26T07:33:32.971Z,40.50
2019-04-26T07:36:23.182Z,41.20
2019-04-26T07:39:20.299Z,40.70
2019-04-26T07:42:28.363Z,41.50
2019-04-26T07:45:31.830Z,40.70
2019-04-26T07:48:24.390Z,42.10
2019-04-26T07:51:18.921Z,42.00
2019-04-26T07:54:30.974Z,42.20
2019-04-26T07:57:26.434Z,42.60
2019-04-26T08:00:06.654Z,43.00
2019-04-26T08:03:06.870Z,43.00
2019-04-26T08:05:54.171Z,45.10
2019-04-26T08:08:31.198Z,44.10
2019-04-26T08:11:25.888Z,43.60
2019-04-26T08:14:19.647Z,43.80
2019-04-26T08:17:20.082Z,44.00
2019-04-26T08:20:05.535Z,45.00
2019-04-26T08:22:44.986Z,45.70
2019-04-26T08:25:21.520Z,45.50
2019-04-26T08:27:58.675Z,44.80
2019-04-26T08:30:36.503Z,45.10
2019-04-26T08:33:13.501Z,45.30
2019-04-26T08:35:53.281Z,46.40
2019-04-26T08:38:28.647Z,46.10
2019-04-26T08:41:04.974Z,46.60
2019-04-26T08:43:48.322Z,46.10
2019-04-26T08:46:36.142Z,46.60
2019-04-26T08:49:16.216Z,47.20
2019-04-26T08:51:55.956Z,47.70
2019-04-26T08:54:32.607Z,49.00
2019-04-26T08:57:09.461Z,49.40
2019-04-26T08:59:46.532Z,49.30
2019-04-26T09:02:24.297Z,50.10
2019-04-26T09:05:18.799Z,50.60
2019-04-26T09:07:57.615Z,50.60
2019-04-26T09:10:33.562Z,51.40
2019-04-26T09:13:10.143Z,51.50
2019-04-26T09:15:59.501Z,51.60
2019-04-26T09:18:42.885Z,52.20
2019-04-26T09:21:13.417Z,52.20
2019-04-26T09:24:05.014Z,52.50
2019-04-26T09:29:32.159Z,54.60
2019-04-26T09:32:15.264Z,54.80
2019-04-26T09:34:50.290Z,55.40
2019-04-26T09:37:25.546Z,56.30
2019-04-26T09:40:09.546Z,56.60
2019-04-26T09:42:44.928Z,56.70
2019-04-26T09:45:33.348Z,57.50
2019-04-26T09:48:27.987Z,57.40
2019-04-26T09:51:03.543Z,57.60
2019-04-26T09:53:43.260Z,57.80
2019-04-26T09:56:16.538Z,57.90
2019-04-26T09:58:52.350Z,57.90
2019-04-26T10:01:28.108Z,58.20
2019-04-26T10:04:03.465Z,57.40
2019-04-26T10:06:38.360Z,57.60
2019-04-26T10:09:20.758Z,57.20
2019-04-26T10:12:03.172Z,57.10
2019-04-26T10:14:46.747Z,57.00
2019-04-26T10:17:29.044Z,57.20
2019-04-26T10:20:04.481Z,57.80
2019-04-26T10:22:40.347Z,57.50
2019-04-26T10:25:17.259Z,57.70
2019-04-26T10:27:52.391Z,57.70
2019-04-26T10:30:28.032Z,57.50
2019-04-26T10:33:03.513Z,58.00
2019-04-26T10:35:39.170Z,58.10
2019-04-26T10:38:14.483Z,58.40
2019-04-26T10:40:51.609Z,58.90
2019-04-26T10:43:29.324Z,58.50
2019-04-26T10:46:03.456Z,58.30
2019-04-26T10:48:41.159Z,59.10
2019-04-26T10:51:17.511Z,59.20
2019-04-26T10:53:54.399Z,59.20
2019-04-26T10:56:43.870Z,59.20
2019-04-26T10:59:26.279Z,59.50
2019-04-26T11:02:02.454Z,59.20
2019-04-26T11:04:41.386Z,60.10
2019-04-26T11:07:16.099Z,60.00
2019-04-26T11:09:54.989Z,60.10
2019-04-26T11:12:35.752Z,61.00
2019-04-26T11:15:15.386Z,61.10
2019-04-26T11:17:51.955Z,61.40
2019-04-26T11:20:28.708Z,61.50
2019-04-26T11:23:08.174Z,62.50
2019-04-26T11:25:42.187Z,63.20
2019-04-26T11:28:21.462Z,63.30
2019-04-26T11:30:57.294Z,62.60
2019-04-26T11:33:31.714Z,62.90
2019-04-26T11:36:11.462Z,62.70
2019-04-26T11:38:46.277Z,63.30
2019-04-26T11:41:21.373Z,63.20
2019-04-26T11:43:57.460Z,62.90
2019-04-26T11:46:44.005Z,62.40
2019-04-26T11:49:08.705Z,62.40
2019-04-26T11:51:46.787Z,62.70
2019-04-26T11:54:25.252Z,63.00
2019-04-26T11:57:00.147Z,62.60
2019-04-26T11:59:35.722Z,62.90
2019-04-26T12:02:12.347Z,63.00
2019-04-26T12:04:53.880Z,62.60
2019-04-26T12:07:37.836Z,63.60
2019-04-26T12:10:14.316Z,63.40
2019-04-26T12:12:51.835Z,62.70
2019-04-26T12:15:31.235Z,63.70
2019-04-26T12:18:10.983Z,62.70
2019-04-26T12:20:50.265Z,63.60
2019-04-26T12:23:26.517Z,63.30
2019-04-26T12:26:02.534Z,63.50
2019-04-26T12:28:41.377Z,63.20
2019-04-26T12:31:18.454Z,64.10
2019-04-26T12:34:14.068Z,65.40
2019-04-26T12:36:48.579Z,64.30
2019-04-26T12:39:23.579Z,64.80
2019-04-26T12:41:59.230Z,64.00
2019-04-26T12:44:36.466Z,64.40
2019-04-26T12:47:19.458Z,66.10
2019-04-26T12:49:58.563Z,65.30
2019-04-26T12:52:31.015Z,66.00
2019-04-26T12:55:05.962Z,65.60
2019-04-26T12:57:42.439Z,65.70
2019-04-26T13:00:18.909Z,66.40
2019-04-26T13:07:07.034Z,69.10
2019-04-26T13:09:40.451Z,69.50
2019-04-26T13:12:20.403Z,69.10
2019-04-26T13:15:08.392Z,70.10
2019-04-26T13:17:44.999Z,69.50
2019-04-26T13:20:20.171Z,69.80
2019-04-26T13:22:55.933Z,69.70
2019-04-26T13:25:40.238Z,71.10
2019-04-26T13:28:07.885Z,69.80
2019-04-26T13:30:43.672Z,70.00
2019-04-26T13:33:23.211Z,70.70
2019-04-26T13:36:02.516Z,71.40
2019-04-26T13:38:33.377Z,71.90
2019-04-26T13:41:08.920Z,72.50
2019-04-26T13:43:45.034Z,72.50
2019-04-26T13:46:27.087Z,72.30
2019-04-26T13:49:03.690Z,74.00
2019-04-26T13:51:39.926Z,73.50
2019-04-26T13:54:20.977Z,73.50
2019-04-26T13:57:10.064Z,73.80
2019-04-26T13:59:43.439Z,72.10
2019-04-26T14:02:18.605Z,70.30
2019-04-26T14:04:54.559Z,71.50
2019-04-26T14:07:29.598Z,71.00
2019-04-26T14:10:04.675Z,70.50
2019-04-26T14:12:40.693Z,70.50
2019-04-26T14:15:15.931Z,71.10
2019-04-26T14:17:50.758Z,71.20
2019-04-26T14:20:26.672Z,71.30
2019-04-26T14:23:18.552Z,71.30
2019-04-26T14:26:11.748Z,70.90
2019-04-26T14:28:46.774Z,71.10
2019-04-26T14:31:22.262Z,72.00
2019-04-26T14:33:57.360Z,70.40
2019-04-26T14:36:32.853Z,70.00
2019-04-26T14:39:13.028Z,70.50
2019-04-26T14:41:46.973Z,70.30
2019-04-26T14:44:21.957Z,69.80
2019-04-26T14:46:57.904Z,69.60
2019-04-26T14:49:39.031Z,71.00
2019-04-26T14:52:09.478Z,71.70
2019-04-26T14:54:45.934Z,72.40
2019-04-26T14:57:26.674Z,71.40
2019-04-26T15:00:01.254Z,71.60
2019-04-26T15:02:47.192Z,72.60
2019-04-26T15:05:33.223Z,71.70
2019-04-26T15:08:09.964Z,72.60
2019-04-26T15:10:48.556Z,72.90
2019-04-26T15:13:23.482Z,73.90
2019-04-26T15:15:58.069Z,72.70
2019-04-26T15:18:36.941Z,73.30
2019-04-26T15:21:09.891Z,72.30
2019-04-26T15:23:45.260Z,73.00
2019-04-26T15:26:22.779Z,72.10
2019-04-26T15:28:56.715Z,72.30
2019-04-26T15:31:32.982Z,72.10
2019-04-26T15:34:08.629Z,72.50
2019-04-26T15:36:47.421Z,72.20
2019-04-26T15:39:45.538Z,72.50
2019-04-26T15:42:25.209Z,72.60
2019-04-26T15:45:01.735Z,73.50
2019-04-26T15:47:52.360Z,73.20
2019-04-26T15:50:50.351Z,71.50
2019-04-26T15:53:22.179Z,72.80
2019-04-26T15:55:57.925Z,72.40
2019-04-26T15:58:32.780Z,73.30
2019-04-26T16:01:10.790Z,72.90
2019-04-26T16:03:44.664Z,72.30
2019-04-26T16:06:20.447Z,72.40
2019-04-26T16:08:55.546Z,72.90
2019-04-26T16:11:30.738Z,72.30
2019-04-26T16:14:05.385Z,72.10
2019-04-26T16:16:42.294Z,71.00
2019-04-26T16:19:16.517Z,70.50
2019-04-26T16:21:52.807Z,71.30
2019-04-26T16:24:27.852Z,70.80
2019-04-26T16:27:05.337Z,70.50
2019-04-26T16:29:55.583Z,70.90
2019-04-26T16:32:47.304Z,69.90
2019-04-26T16:35:25.162Z,70.20
2019-04-26T16:40:34.600Z,70.50
2019-04-26T16:43:09.762Z,71.40
2019-04-26T16:45:44.927Z,72.70
2019-04-26T16:48:24.329Z,71.70
2019-04-26T16:51:00.838Z,71.40
2019-04-26T16:53:46.326Z,70.50
2019-04-26T16:56:09.110Z,71.20
2019-04-26T16:58:45.366Z,71.00
2019-04-26T17:01:26.577Z,71.20
2019-04-26T17:04:04.027Z,72.80
2019-04-26T17:06:44.292Z,71.20
2019-04-26T17:09:14.728Z,71.70
2019-04-26T17:09:37.221Z,70.50
2019-04-26T17:11:49.603Z,71.40
2019-04-26T17:14:24.671Z,72.60
2019-04-26T17:16:59.677Z,71.90
2019-04-26T17:19:37.495Z,76.80
2019-04-26T17:22:41.940Z,79.70
2019-04-26T17:25:12.550Z,83.90
2019-04-26T17:27:47.515Z,86.20
2019-04-26T17:30:41.106Z,89.00
2019-04-26T17:33:13.027Z,89.20
2019-04-26T17:35:48.125Z,89.20
2019-04-26T17:38:23.032Z,90.00
2019-04-26T17:40:58.383Z,90.20
2019-04-26T17:43:33.343Z,90.00
2019-04-26T17:46:10.441Z,89.80
2019-04-26T17:48:49.057Z,88.70
2019-04-26T17:51:23.298Z,88.50
2019-04-26T17:54:18.883Z,86.50
2019-04-26T17:56:37.489Z,86.40
2019-04-26T17:59:13.791Z,87.10
2019-04-26T18:01:51.852Z,86.50
2019-04-26T18:04:32.248Z,86.70
2019-04-26T18:07:03.835Z,86.80
2019-04-26T18:09:43.549Z,85.90
2019-04-26T18:12:14.523Z,86.40
2019-04-26T18:14:49.332Z,86.00
2019-04-26T18:17:28.649Z,85.10
2019-04-26T18:20:16.854Z,83.80
2019-04-26T18:22:56.128Z,83.30
2019-04-26T18:25:31.205Z,85.80
2019-04-26T18:28:08.783Z,86.30
2019-04-26T18:30:44.877Z,86.00
2019-04-26T18:33:24.168Z,88.50
2019-04-26T18:35:57.439Z,89.50
2019-04-26T18:38:32.188Z,89.40
2019-04-26T18:41:07.328Z,88.50
2019-04-26T18:46:46.514Z,90.10
2019-04-26T18:49:22.517Z,90.10
2019-04-26T18:51:54.719Z,90.00
2019-04-26T18:54:32.831Z,90.30
2019-04-26T18:57:09.651Z,90.50
2019-04-26T18:59:44.766Z,91.00
2019-04-26T19:02:23.375Z,90.00
2019-04-26T19:04:58.064Z,87.50
2019-04-26T19:07:32.922Z,85.50
2019-04-26T19:10:09.904Z,84.60
2019-04-26T19:12:46.109Z,82.60
2019-04-26T19:15:28.665Z,81.80
2019-04-26T19:18:11.634Z,79.90
2019-04-26T19:20:53.901Z,78.70
2019-04-26T19:23:29.956Z,77.60
2019-04-26T19:26:09.312Z,76.20
2019-04-26T19:28:44.412Z,76.70
2019-04-26T19:31:19.226Z,75.90
2019-04-26T19:33:56.016Z,76.00
2019-04-26T19:36:32.775Z,76.10
2019-04-26T19:39:07.833Z,75.60
2019-04-26T19:41:44.326Z,77.90
2019-04-26T19:44:20.054Z,75.80
2019-04-26T19:46:58.040Z,75.00
2019-04-26T19:49:36.646Z,76.50
2019-04-26T19:52:11.724Z,76.10
2019-04-26T19:54:52.924Z,76.20
2019-04-26T19:57:33.351Z,75.20
2019-04-26T20:00:09.658Z,75.30
2019-04-26T20:02:46.005Z,75.80
2019-04-26T20:05:22.365Z,75.60
2019-04-26T20:07:58.460Z,76.10
2019-04-26T20:10:43.732Z,76.10
2019-04-26T20:13:18.408Z,76.40
2019-04-26T20:15:57.433Z,77.10
2019-04-26T20:18:38.699Z,77.40
2019-04-26T20:21:12.622Z,77.00
2019-04-26T20:23:47.471Z,78.60
2019-04-26T20:26:23.789Z,79.30
2019-04-26T20:28:58.924Z,79.60
2019-04-26T20:31:44.941Z,80.90
2019-04-26T20:34:18.374Z,82.90
2019-04-26T20:36:53.263Z,82.30
2019-04-26T20:39:28.641Z,82.70
2019-04-26T20:42:04.049Z,84.40
2019-04-26T20:44:50.468Z,84.80
2019-04-26T20:47:17.820Z,83.90
2019-04-26T20:50:00.585Z,85.00
2019-04-26T20:52:32.146Z,85.40
2019-04-26T20:55:07.474Z,84.70
2019-04-26T20:57:44.558Z,86.30
2019-04-26T21:00:19.319Z,84.90
2019-04-26T21:03:01.255Z,87.00
2019-04-26T21:05:45.031Z,87.30
2019-04-26T21:08:07.214Z,88.50
2019-04-26T21:10:43.027Z,88.20
2019-04-26T21:13:19.064Z,88.00
2019-04-26T21:15:58.282Z,88.40
2019-04-26T21:18:33.801Z,88.00
2019-04-26T21:21:10.469Z,88.90
2019-04-26T21:23:44.080Z,88.40
2019-04-26T21:26:26.367Z,90.00
2019-04-26T21:29:24.147Z,88.00
2019-04-26T21:32:08.463Z,88.20
2019-04-26T21:34:50.558Z,89.10
2019-04-26T21:37:25.199Z,88.20
2019-04-26T21:40:01.466Z,88.80
2019-04-26T21:42:37.754Z,88.40
2019-04-26T21:45:13.168Z,88.00
2019-04-26T21:47:48.379Z,88.40
2019-04-26T21:50:23.421Z,88.20
2019-04-26T21:53:02.663Z,86.40
2019-04-26T21:55:38.333Z,87.40
2019-04-26T21:58:11.499Z,86.70
2019-04-26T22:00:59.667Z,87.60
2019-04-26T22:03:35.409Z,87.00
2019-04-26T22:06:10.504Z,87.40
2019-04-26T22:08:46.819Z,86.80
2019-04-26T22:11:23.251Z,86.70
2019-04-26T22:14:08.357Z,86.70
2019-04-26T22:16:50.471Z,86.30
2019-04-26T22:19:36.477Z,85.80
2019-04-26T22:22:18.346Z,83.80
2019-04-26T22:24:55.610Z,85.20
2019-04-26T22:27:30.507Z,84.50
2019-04-26T22:30:18.555Z,85.30
2019-04-26T22:33:09.257Z,83.20
2019-04-26T22:35:54.701Z,84.10
2019-04-26T22:38:36.207Z,84.70
2019-04-26T22:41:13.326Z,84.60
2019-04-26T22:43:58.239Z,85.00
2019-04-26T22:46:49.461Z,85.10
2019-04-26T22:49:23.226Z,87.80
2019-04-26T22:51:59.579Z,87.90
2019-04-26T22:54:37.695Z,89.40
2019-04-26T22:57:13.040Z,90.00
2019-04-26T22:59:50.233Z,89.20
2019-04-26T23:02:27.449Z,88.60
2019-04-26T23:05:00.606Z,88.80
2019-04-26T23:07:37.242Z,89.40
2019-04-26T23:10:15.186Z,90.30
2019-04-26T23:12:57.876Z,90.10
2019-04-26T23:15:33.146Z,90.00
2019-04-26T23:18:18.869Z,90.30
2019-04-26T23:20:58.051Z,90.20
2019-04-26T23:23:37.057Z,90.60
2019-04-26T23:26:10.421Z,90.00
2019-04-26T23:28:45.695Z,90.80
2019-04-26T23:31:20.908Z,90.00
2019-04-26T23:33:56.141Z,89.80
2019-04-26T23:36:31.396Z,90.00
2019-04-26T23:39:11.661Z,90.20
2019-04-26T23:41:44.600Z,90.10
2019-04-26T23:44:19.936Z,90.00
2019-04-26T23:47:01.156Z,89.90
2019-04-26T23:49:44.130Z,90.00
2019-04-26T23:52:35.898Z,89.70
2019-04-26T23:55:10.979Z,89.10
2019-04-26T23:57:45.816Z,89.90
